Alta June — WDE5645 — position and weather

sailwx.info

Track history (hours):
 
Tides and Currents Weather Stations Pressure Air Temp Water Temp Dewpoint Dewpoint Depression Visibility Wind Speed Wind Dir Waves Ship Positions

Alta June

Owner: Foss Maritime Company, Seattle, WA. More information available from US FCC via Universal Licensing System and Coast Guard Vessel Documentation Center.

Last reported at 2017-Sep-21 22:57 UTC. Time now 2017-Sep-21 23:11 UTC.
Position N 33°46' W 118°17'.

Length 23 m; draft 5 m.

Type: Towing. MMSI: 367369720.

Date/timePositionNaut miles runAvg speedWind from/ knotsBaromVisibWave heightAir tempDewpointWater temp
2017-Sep-21 22:57N 33°46' W 118°17'0 0.3
2017-Sep-21 22:30N 33°45' W 118°17'1 2.4
2017-Sep-21 22:00N 33°44' W 118°17'1 2.8
2017-Sep-21 21:29N 33°43' W 118°16'0 0.9
2017-Sep-21 20:59N 33°43' W 118°16'0 0.0
2017-Sep-21 20:30N 33°43' W 118°16'0 0.0
2017-Sep-21 19:52N 33°43' W 118°16'0 0.9
2017-Sep-21 19:27N 33°43' W 118°16'2 5.0
2017-Sep-21 18:58N 33°46' W 118°16'0 0.7
2017-Sep-21 18:26N 33°45' W 118°16'2 5.1
2017-Sep-21 18:00N 33°43' W 118°16'1 1.3
2017-Sep-21 17:28N 33°44' W 118°16'2 5.0
2017-Sep-21 17:00N 33°45' W 118°13'1 2.1
2017-Sep-21 16:30N 33°46' W 118°13'0 0.0
2017-Sep-21 16:00N 33°46' W 118°13'2 3.8
2017-Sep-21 15:27N 33°46' W 118°16'0 0.4
2017-Sep-21 14:57N 33°46' W 118°16'0 0.7
2017-Sep-21 14:25N 33°46' W 118°16'2 3.2
2017-Sep-21 13:56N 33°44' W 118°17'1 3.0
2017-Sep-21 13:30N 33°43' W 118°16'2 3.2
2017-Sep-21 12:59N 33°45' W 118°16'0 0.0
2017-Sep-21 12:29N 33°45' W 118°16'2 3.0
2017-Sep-21 11:58N 33°43' W 118°16'2 4.0
2017-Sep-21 11:28N 33°45' W 118°16'0 0.5
2017-Sep-21 10:47N 33°45' W 118°16'0 0.1
2017-Sep-21 10:27N 33°45' W 118°16'0 0.6
2017-Sep-21 10:00N 33°45' W 118°16'1 1.5
2017-Sep-21 09:27N 33°44' W 118°17'3 0.6
2017-Sep-21 04:33N 33°46' W 118°13'0 0.0
2017-Sep-21 04:30N 33°46' W 118°13'0 0.0
2017-Sep-21 04:00N 33°46' W 118°13'0 0.0
2017-Sep-21 03:30N 33°46' W 118°13'0 0.0
2017-Sep-21 02:59N 33°46' W 118°13'0 0.0
2017-Sep-21 02:24N 33°46' W 118°13'0 0.0
2017-Sep-21 01:59N 33°46' W 118°13'0 0.0
2017-Sep-21 01:30N 33°46' W 118°13'3 4.7
2017-Sep-21 00:55N 33°45' W 118°16'1 2.4
2017-Sep-21 00:28N 33°46' W 118°16'0 0.0
2017-Sep-21 00:00N 33°46' W 118°16'0 0.3
2017-Sep-20 23:29N 33°46' W 118°16'0 0.0
2017-Sep-20 23:00N 33°46' W 118°16'0 0.0
2017-Sep-20 22:30N 33°46' W 118°16'0 0.0
2017-Sep-20 21:59N 33°46' W 118°16'0 1.0
2017-Sep-20 21:30N 33°46' W 118°15'2 4.2
2017-Sep-20 20:59N 33°46' W 118°13'0 0.2
2017-Sep-20 20:30N 33°46' W 118°13'0 0.0
2017-Sep-20 20:00N 33°46' W 118°13'0 0.6
2017-Sep-20 19:30N 33°46' W 118°13'2 4.3
2017-Sep-20 19:00N 33°44' W 118°13'0 1.0
2017-Sep-20 18:30N 33°44' W 118°14'2 5.0
2017-Sep-20 18:00N 33°44' W 118°17'2 3.9
2017-Sep-20 17:27N 33°46' W 118°15'1 3.1
2017-Sep-20 17:00N 33°46' W 118°13'0 0.0
2017-Sep-20 16:30N 33°46' W 118°13'0 0.0
2017-Sep-20 15:59N 33°46' W 118°13'0 0.0
2017-Sep-20 15:29N 33°46' W 118°13'0 0.0
2017-Sep-20 14:57N 33°46' W 118°13'0 0.0
2017-Sep-20 14:00N 33°46' W 118°13'0 0.0
2017-Sep-20 13:19N 33°46' W 118°13'0 0.0
2017-Sep-20 13:00N 33°46' W 118°13'1 1.4
2017-Sep-20 12:30N 33°45' W 118°14'0 0.1
2017-Sep-20 12:00N 33°45' W 118°14'1 1.2
2017-Sep-20 11:26N 33°46' W 118°13'0 0.0
2017-Sep-20 10:32N 33°46' W 118°13'0 0.0
2017-Sep-20 10:02N 33°46' W 118°13'0 0.0
2017-Sep-20 09:49N 33°46' W 118°13'1 1.7
2017-Sep-20 09:22N 33°46' W 118°13'0 0.0
2017-Sep-20 08:59N 33°46' W 118°13'0 0.2
2017-Sep-20 08:30N 33°46' W 118°13'1 1.6
2017-Sep-20 07:58N 33°46' W 118°13'3 2.4
2017-Sep-20 06:36N 33°44' W 118°16'2 8.6
2017-Sep-20 06:24N 33°46' W 118°16'0 0.9
2017-Sep-20 05:56N 33°46' W 118°16'1 1.1
2017-Sep-20 05:30N 33°46' W 118°16'1 0.7
2017-Sep-20 04:04N 33°46' W 118°15'1 5.9
2017-Sep-20 03:55N 33°46' W 118°16'1 1.7
2017-Sep-20 03:30N 33°46' W 118°17'0 0.6
2017-Sep-20 03:00N 33°46' W 118°16'1 1.0
2017-Sep-20 02:29N 33°46' W 118°16'0 0.1
2017-Sep-20 01:48N 33°46' W 118°16'0 0.0
2017-Sep-20 01:28N 33°46' W 118°16'0 0.0
2017-Sep-20 00:56N 33°46' W 118°16'0 0.0
2017-Sep-20 00:27N 33°46' W 118°16'0 0.0
2017-Sep-20 00:00N 33°46' W 118°16'0 0.0
2017-Sep-19 23:30N 33°46' W 118°16'0 0.0
2017-Sep-19 23:00N 33°46' W 118°16'1 1.0
2017-Sep-19 22:27N 33°46' W 118°16'0 1.0
2017-Sep-19 22:00N 33°46' W 118°17'2 3.1
2017-Sep-19 21:28N 33°44' W 118°16'2 3.8
2017-Sep-19 20:59N 33°43' W 118°15'1 2.8
2017-Sep-19 20:29N 33°44' W 118°14'2 3.3
2017-Sep-19 19:52N 33°46' W 118°13'0 0.0
2017-Sep-19 19:29N 33°46' W 118°13'0 0.0
2017-Sep-19 18:47N 33°46' W 118°13'0 0.0
2017-Sep-19 18:18N 33°46' W 118°13'0 0.0
2017-Sep-19 17:45N 33°46' W 118°13'0 0.0
2017-Sep-19 17:17N 33°46' W 118°13'0 0.0
2017-Sep-19 16:49N 33°46' W 118°13'1 0.1
2017-Sep-19 03:04N 33°45' W 118°14'0 1.0
2017-Sep-19 02:59N 33°45' W 118°14'0 0.1
2017-Sep-19 02:19N 33°45' W 118°14'1 1.6
2017-Sep-19 01:52N 33°45' W 118°13'0 0.0
2017-Sep-19 00:10N 33°45' W 118°13'0 0.0
2017-Sep-18 23:55N 33°45' W 118°13'0 0.9
2017-Sep-18 23:30N 33°45' W 118°13'3 6.1
2017-Sep-18 23:00N 33°43' W 118°16'2 3.9
2017-Sep-18 22:30N 33°45' W 118°16'0 0.1
2017-Sep-18 22:00N 33°45' W 118°16'1 1.1
2017-Sep-18 21:30N 33°45' W 118°16'0 0.2
2017-Sep-18 20:57N 33°45' W 118°16'0 0.2
2017-Sep-18 20:30N 33°45' W 118°16'2 4.2
2017-Sep-18 19:59N 33°43' W 118°15'0 0.7
2017-Sep-18 19:30N 33°43' W 118°16'3 4.3
2017-Sep-18 18:54N 33°46' W 118°17'0 0.5
2017-Sep-18 18:29N 33°45' W 118°17'1 2.4
2017-Sep-18 18:00N 33°44' W 118°17'2 4.0
2017-Sep-18 17:28N 33°43' W 118°15'3 5.3
2017-Sep-18 16:56N 33°45' W 118°13'0 0.9
2017-Sep-18 16:23N 33°46' W 118°13'2 0.5
2017-Sep-18 12:12N 33°44' W 118°11'1 0.7
2017-Sep-18 11:23N 33°44' W 118°11'2 0.9
2017-Sep-18 08:47N 33°46' W 118°13'0 0.0
2017-Sep-18 08:30N 33°46' W 118°13'0 0.0
2017-Sep-18 07:59N 33°46' W 118°13'0 0.0
2017-Sep-18 07:29N 33°46' W 118°13'1 2.3
2017-Sep-18 07:00N 33°45' W 118°13'1 0.6
2017-Sep-18 05:02N 33°46' W 118°13'0 0.0
2017-Sep-18 04:19N 33°46' W 118°13'0 0.0
2017-Sep-18 04:00N 33°46' W 118°13'0 0.0
2017-Sep-18 03:30N 33°46' W 118°13'0 0.0
2017-Sep-18 02:59N 33°46' W 118°13'0 0.5
2017-Sep-18 02:04N 33°46' W 118°13'1 7.8
2017-Sep-18 01:57N 33°46' W 118°14'1 2.3
2017-Sep-18 01:27N 33°46' W 118°16'0 0.0
2017-Sep-18 00:58N 33°46' W 118°16'0 0.0
2017-Sep-18 00:22N 33°46' W 118°16'0 0.0
2017-Sep-17 23:54N 33°46' W 118°16'0 0.0
2017-Sep-17 23:23N 33°46' W 118°16'0 0.5
2017-Sep-17 22:56N 33°46' W 118°16'0 1.0
2017-Sep-17 22:29N 33°45' W 118°16'2 3.3
2017-Sep-17 21:59N 33°44' W 118°16'2 3.1
2017-Sep-17 21:25N 33°43' W 118°14'1 2.8
2017-Sep-17 21:00N 33°44' W 118°13'2 4.1
2017-Sep-17 20:30N 33°46' W 118°13'0 0.0
2017-Sep-17 19:56N 33°46' W 118°13'0 0.0
2017-Sep-17 19:16N 33°46' W 118°13'0 0.0
2017-Sep-17 18:48N 33°46' W 118°13'0 0.0
2017-Sep-17 18:20N 33°46' W 118°13'0 0.0
2017-Sep-17 17:32N 33°46' W 118°13'0 0.0
2017-Sep-17 17:28N 33°46' W 118°13'3 0.6
2017-Sep-17 12:53N 33°45' W 118°16'3 1.2
2017-Sep-17 10:40N 33°45' W 118°13'1 2.2
2017-Sep-17 10:25N 33°45' W 118°13'0 0.1
2017-Sep-17 08:44N 33°46' W 118°13'0 0.0
2017-Sep-17 08:18N 33°46' W 118°13'0 0.0
2017-Sep-17 07:56N 33°46' W 118°13'0 0.0
2017-Sep-17 06:53N 33°46' W 118°13'0 0.0
2017-Sep-17 06:24N 33°46' W 118°13'0 0.0
2017-Sep-17 05:54N 33°46' W 118°13'0 0.0
2017-Sep-17 05:25N 33°46' W 118°13'0 0.0
2017-Sep-17 04:57N 33°46' W 118°13'0 0.0
2017-Sep-17 04:25N 33°46' W 118°13'0 0.0
2017-Sep-17 03:59N 33°46' W 118°13'0 0.0
2017-Sep-17 03:24N 33°46' W 118°13'0 0.0
2017-Sep-17 02:56N 33°46' W 118°13'0 0.0
2017-Sep-17 02:26N 33°46' W 118°13'0 0.0
2017-Sep-17 01:57N 33°46' W 118°13'0 0.0
2017-Sep-17 01:29N 33°46' W 118°13'0 0.0
2017-Sep-17 00:58N 33°46' W 118°13'2 5.2
2017-Sep-17 00:30N 33°44' W 118°11'0 0.9
2017-Sep-16 23:59N 33°44' W 118°11'0 0.3
2017-Sep-16 23:26N 33°44' W 118°11'2 3.3
2017-Sep-16 22:58N 33°45' W 118°13'2 3.1
2017-Sep-16 22:29N 33°46' W 118°13'2 4.7
2017-Sep-16 21:59N 33°44' W 118°13'0 0.0
2017-Sep-16 21:30N 33°44' W 118°13'0 0.0
2017-Sep-16 20:55N 33°44' W 118°13'0 0.0
2017-Sep-16 20:30N 33°44' W 118°13'0 0.0
2017-Sep-16 20:00N 33°44' W 118°13'0 0.1
2017-Sep-16 19:29N 33°44' W 118°13'0 0.6
2017-Sep-16 19:00N 33°44' W 118°13'3 5.6
2017-Sep-16 18:29N 33°44' W 118°17'1 2.8
2017-Sep-16 17:59N 33°45' W 118°16'0 0.1
2017-Sep-16 17:30N 33°45' W 118°17'2 3.2
2017-Sep-16 16:57N 33°46' W 118°15'1 1.1
2017-Sep-16 15:56N 33°46' W 118°13'3 0.5
2017-Sep-16 10:51N 33°43' W 118°14'3 4.2
2017-Sep-16 10:09N 33°46' W 118°14'0 0.0
2017-Sep-16 09:53N 33°46' W 118°14'1 2.3
2017-Sep-16 09:30N 33°46' W 118°13'0 0.0
2017-Sep-16 09:00N 33°46' W 118°13'0 0.0
2017-Sep-16 07:47N 33°46' W 118°13'0 0.0
2017-Sep-16 07:29N 33°46' W 118°13'0 0.0
2017-Sep-16 06:59N 33°46' W 118°13'0 0.0
2017-Sep-16 06:30N 33°46' W 118°13'0 0.0
2017-Sep-16 06:00N 33°46' W 118°13'0 0.0
2017-Sep-16 05:30N 33°46' W 118°13'0 0.0
2017-Sep-16 04:59N 33°46' W 118°13'0 0.0
2017-Sep-16 04:30N 33°46' W 118°13'0 0.0
2017-Sep-16 03:59N 33°46' W 118°13'0 0.0
2017-Sep-16 03:26N 33°46' W 118°13'0 0.0
2017-Sep-16 02:56N 33°46' W 118°13'0 0.0
2017-Sep-16 02:26N 33°46' W 118°13'0 0.0
2017-Sep-16 01:55N 33°46' W 118°13'1 1.7
2017-Sep-16 01:30N 33°46' W 118°13'1 1.3
2017-Sep-16 01:00N 33°46' W 118°13'3 5.6
2017-Sep-16 00:28N 33°44' W 118°11'0 0.8
2017-Sep-16 00:00N 33°44' W 118°10'0 0.0
2017-Sep-15 23:30N 33°44' W 118°10'2 3.9
2017-Sep-15 22:59N 33°44' W 118°13'1 1.8
2017-Sep-15 22:28N 33°45' W 118°13'0 0.0
2017-Sep-15 21:59N 33°45' W 118°13'2 4.1
2017-Sep-15 21:25N 33°43' W 118°14'2 4.7
2017-Sep-15 21:00N 33°44' W 118°16'0 0.0
2017-Sep-15 20:30N 33°44' W 118°16'0 0.2
2017-Sep-15 20:00N 33°44' W 118°16'3 6.4
2017-Sep-15 19:30N 33°45' W 118°13'1 1.8
2017-Sep-15 18:53N 33°46' W 118°13'1 1.3
2017-Sep-15 18:27N 33°46' W 118°13'0 0.6
2017-Sep-15 17:59N 33°46' W 118°13'0 0.0
2017-Sep-15 17:21N 33°46' W 118°13'0 0.7
2017-Sep-15 16:52N 33°46' W 118°13'2 4.8
2017-Sep-15 16:28N 33°46' W 118°16'2 2.6
2017-Sep-15 15:52N 33°45' W 118°17'3 6.2
2017-Sep-15 15:25N 33°43' W 118°14'3 6.2
2017-Sep-15 14:56N 33°46' W 118°13'0 0.3
2017-Sep-15 14:25N 33°46' W 118°13'0 0.0
2017-Sep-15 13:58N 33°46' W 118°13'1 1.6
2017-Sep-15 13:30N 33°46' W 118°13'3 6.4
2017-Sep-15 13:00N 33°44' W 118°17'1 1.9
2017-Sep-15 12:30N 33°45' W 118°16'0 0.0
2017-Sep-15 12:00N 33°45' W 118°16'0 0.5
2017-Sep-15 11:29N 33°45' W 118°16'0 0.0
2017-Sep-15 10:55N 33°45' W 118°16'0 0.0
2017-Sep-15 10:30N 33°45' W 118°16'0 0.0
2017-Sep-15 09:47N 33°45' W 118°16'0 0.0
2017-Sep-15 09:26N 33°45' W 118°16'0 0.0
2017-Sep-15 09:00N 33°45' W 118°16'0 0.0
2017-Sep-15 08:29N 33°45' W 118°16'0 0.0
2017-Sep-15 08:00N 33°45' W 118°16'0 0.4
2017-Sep-15 07:28N 33°45' W 118°16'1 1.7
2017-Sep-15 06:59N 33°45' W 118°17'3 5.5
2017-Sep-15 06:27N 33°42' W 118°14'2 3.5
2017-Sep-15 05:59N 33°42' W 118°12'2 3.4
2017-Sep-15 05:30N 33°44' W 118°12'2 4.4
2017-Sep-15 04:59N 33°46' W 118°13'0 0.0
2017-Sep-15 03:55N 33°46' W 118°13'1 2.3
2017-Sep-15 03:25N 33°46' W 118°15'1 2.4
2017-Sep-15 03:00N 33°46' W 118°16'1 2.3
2017-Sep-15 02:28N 33°45' W 118°16'3 2.9
2017-Sep-15 01:29N 33°45' W 118°13'1 2.3
2017-Sep-15 01:00N 33°46' W 118°13'0 0.5
2017-Sep-15 00:29N 33°46' W 118°13'1 2.8
2017-Sep-14 23:59N 33°45' W 118°13'2 3.9
2017-Sep-14 23:30N 33°44' W 118°12'1 1.8
2017-Sep-14 22:58N 33°44' W 118°12'0 0.0
2017-Sep-14 22:30N 33°44' W 118°12'0 0.0
2017-Sep-14 22:00N 33°44' W 118°12'0 0.9
2017-Sep-14 21:30N 33°44' W 118°12'1 1.2
2017-Sep-14 20:58N 33°44' W 118°12'3 5.5
2017-Sep-14 20:30N 33°46' W 118°13'0 0.8
2017-Sep-14 19:59N 33°46' W 118°13'3 4.8
2017-Sep-14 19:21N 33°43' W 118°14'2 4.5
2017-Sep-14 18:57N 33°44' W 118°16'2 4.4
2017-Sep-14 18:28N 33°46' W 118°16'1 1.6
2017-Sep-14 18:00N 33°46' W 118°15'1 2.7
2017-Sep-14 17:30N 33°46' W 118°13'0 0.0
2017-Sep-14 17:00N 33°46' W 118°13'0 0.0
2017-Sep-14 16:30N 33°46' W 118°13'0 0.0
2017-Sep-14 16:00N 33°46' W 118°13'0 0.0
2017-Sep-14 15:29N 33°46' W 118°13'1 1.5
2017-Sep-14 15:00N 33°46' W 118°13'4 3.3
2017-Sep-14 13:49N 33°43' W 118°16'0 0.7
2017-Sep-14 13:28N 33°43' W 118°16'3 7.1
2017-Sep-14 12:59N 33°44' W 118°12'0 0.4
2017-Sep-14 12:17N 33°44' W 118°11'1 0.4
2017-Sep-14 10:51N 33°44' W 118°11'1 2.3
2017-Sep-14 10:30N 33°44' W 118°12'1 0.9
2017-Sep-14 09:55N 33°44' W 118°12'2 3.9
2017-Sep-14 09:29N 33°46' W 118°13'0 0.0
2017-Sep-14 08:52N 33°46' W 118°13'0 0.0
2017-Sep-14 08:25N 33°46' W 118°13'0 0.0
2017-Sep-14 07:55N 33°46' W 118°13'0 0.0
2017-Sep-14 07:30N 33°46' W 118°13'0 1.0
2017-Sep-14 07:01N 33°46' W 118°13'2 3.7
2017-Sep-14 06:30N 33°46' W 118°16'0 0.2
2017-Sep-14 06:00N 33°46' W 118°16'0 0.2
2017-Sep-14 05:30N 33°46' W 118°16'2 3.9
2017-Sep-14 04:58N 33°46' W 118°13'0 0.0
2017-Sep-14 04:30N 33°46' W 118°13'0 0.0
2017-Sep-14 04:00N 33°46' W 118°13'0 0.0
2017-Sep-14 03:29N 33°46' W 118°13'0 0.0
2017-Sep-14 02:59N 33°46' W 118°13'0 0.0
2017-Sep-14 02:30N 33°46' W 118°13'0 0.8
2017-Sep-14 02:00N 33°45' W 118°13'3 6.4
2017-Sep-14 01:31N 33°43' W 118°16'1 1.6
2017-Sep-14 00:59N 33°44' W 118°15'0 0.0
2017-Sep-14 00:30N 33°44' W 118°15'1 2.2
2017-Sep-14 00:00N 33°44' W 118°17'2 3.0
2017-Sep-13 23:29N 33°46' W 118°16'0 0.0
2017-Sep-13 22:59N 33°46' W 118°16'0 0.0
2017-Sep-13 22:30N 33°46' W 118°16'0 0.0
2017-Sep-13 22:00N 33°46' W 118°16'0 0.0
2017-Sep-13 21:30N 33°46' W 118°16'0 0.0
2017-Sep-13 20:59N 33°46' W 118°16'0 0.0
2017-Sep-13 20:30N 33°46' W 118°16'0 0.0
2017-Sep-13 20:00N 33°46' W 118°16'0 0.0
2017-Sep-13 19:30N 33°46' W 118°16'0 0.3
2017-Sep-13 19:00N 33°46' W 118°16'0 0.0
2017-Sep-13 18:30N 33°46' W 118°16'2 3.2
2017-Sep-13 17:59N 33°46' W 118°14'1 1.2
2017-Sep-13 17:30N 33°46' W 118°13'0 0.0
2017-Sep-13 17:00N 33°46' W 118°13'0 0.0
2017-Sep-13 16:30N 33°46' W 118°13'0 0.0
2017-Sep-13 15:59N 33°46' W 118°13'0 0.0
2017-Sep-13 15:30N 33°46' W 118°13'1 1.9
2017-Sep-13 14:59N 33°46' W 118°14'2 4.1
2017-Sep-13 14:30N 33°45' W 118°16'0 0.7
2017-Sep-13 14:00N 33°46' W 118°17'1 1.4
2017-Sep-13 13:26N 33°45' W 118°16'2 4.6
2017-Sep-13 13:00N 33°45' W 118°13'0 0.8
2017-Sep-13 12:30N 33°45' W 118°14'2 3.4
2017-Sep-13 11:55N 33°44' W 118°12'2 5.1
2017-Sep-13 11:30N 33°45' W 118°14'0 0.5
2017-Sep-13 11:00N 33°45' W 118°14'1 2.5
2017-Sep-13 10:30N 33°44' W 118°13'1 1.0
2017-Sep-13 09:59N 33°44' W 118°12'1 1.3
2017-Sep-13 09:29N 33°44' W 118°12'0 0.1
2017-Sep-13 09:00N 33°44' W 118°12'0 0.1
2017-Sep-13 08:29N 33°44' W 118°12'1 1.5
2017-Sep-13 08:00N 33°45' W 118°12'1 1.4
2017-Sep-13 07:30N 33°45' W 118°13'0 0.0
2017-Sep-13 07:00N 33°45' W 118°13'0 0.0
2017-Sep-13 05:32N 33°45' W 118°13'0 4.2
2017-Sep-13 05:30N 33°45' W 118°13'0 0.8
2017-Sep-13 04:58N 33°46' W 118°13'1 2.5
2017-Sep-13 04:30N 33°46' W 118°15'1 2.1
2017-Sep-13 04:00N 33°46' W 118°16'3 5.3
2017-Sep-13 03:30N 33°43' W 118°16'1 2.5
2017-Sep-13 03:00N 33°44' W 118°15'0 0.1
2017-Sep-13 02:30N 33°44' W 118°15'2 3.1
2017-Sep-13 02:00N 33°45' W 118°16'1 1.8
2017-Sep-13 01:30N 33°45' W 118°16'0 0.0
2017-Sep-13 01:00N 33°45' W 118°16'0 0.0
2017-Sep-13 00:30N 33°45' W 118°16'0 0.0
2017-Sep-12 23:59N 33°45' W 118°16'2 3.7
2017-Sep-12 23:29N 33°44' W 118°16'1 2.4
2017-Sep-12 23:00N 33°44' W 118°15'1 2.6
2017-Sep-12 22:29N 33°44' W 118°17'2 4.0
2017-Sep-12 22:00N 33°46' W 118°16'2 3.5
2017-Sep-12 21:30N 33°46' W 118°13'1 1.3
2017-Sep-12 21:00N 33°46' W 118°13'0 0.0
2017-Sep-12 20:30N 33°46' W 118°13'0 0.0
2017-Sep-12 20:00N 33°46' W 118°13'0 0.0
2017-Sep-12 19:30N 33°46' W 118°13'0 0.0
2017-Sep-12 18:55N 33°46' W 118°13'0 0.0
2017-Sep-12 18:30N 33°46' W 118°13'0 0.1
2017-Sep-12 18:01N 33°46' W 118°13'0 0.2
2017-Sep-12 17:30N 33°46' W 118°13'0 0.0
2017-Sep-12 17:00N 33°46' W 118°13'0 0.0
2017-Sep-12 16:30N 33°46' W 118°13'0 0.0
2017-Sep-12 16:00N 33°46' W 118°13'0 0.0
2017-Sep-12 15:30N 33°46' W 118°13'1 1.3
2017-Sep-12 15:01N 33°46' W 118°13'0 0.0
2017-Sep-12 14:30N 33°46' W 118°13'2 3.1
2017-Sep-12 14:00N 33°46' W 118°15'1 2.7
2017-Sep-12 13:30N 33°45' W 118°16'1 1.2
2017-Sep-12 13:00N 33°44' W 118°17'1 1.9
2017-Sep-12 12:30N 33°43' W 118°16'1 1.1
2017-Sep-12 12:00N 33°43' W 118°16'1 1.7
2017-Sep-12 11:30N 33°43' W 118°15'2 4.8
2017-Sep-12 10:59N 33°45' W 118°16'1 1.9
2017-Sep-12 10:30N 33°46' W 118°16'0 0.0
2017-Sep-12 10:00N 33°46' W 118°16'0 0.0
2017-Sep-12 09:27N 33°46' W 118°16'0 0.0
2017-Sep-12 09:00N 33°46' W 118°16'0 0.0
2017-Sep-12 08:29N 33°46' W 118°16'0 0.3
2017-Sep-12 08:00N 33°46' W 118°16'0 0.3
2017-Sep-12 07:31N 33°46' W 118°16'0 0.0
2017-Sep-12 06:58N 33°46' W 118°16'0 0.0
2017-Sep-12 06:29N 33°46' W 118°16'0 0.0
2017-Sep-12 06:00N 33°46' W 118°16'2 4.0
2017-Sep-12 05:28N 33°46' W 118°13'0 0.0
2017-Sep-12 04:56N 33°46' W 118°13'0 0.0
2017-Sep-12 04:31N 33°46' W 118°13'0 0.2
2017-Sep-12 04:00N 33°46' W 118°13'2 4.1
2017-Sep-12 03:30N 33°46' W 118°16'3 5.7
2017-Sep-12 03:00N 33°43' W 118°14'3 6.5
2017-Sep-12 02:30N 33°46' W 118°13'0 0.0
2017-Sep-12 02:01N 33°46' W 118°13'2 4.3
2017-Sep-12 01:29N 33°46' W 118°16'3 6.0
2017-Sep-12 01:00N 33°43' W 118°16'3 6.2
2017-Sep-12 00:30N 33°45' W 118°13'2 4.6
2017-Sep-12 00:00N 33°43' W 118°14'3 6.3
2017-Sep-11 23:31N 33°46' W 118°17'0 0.4
2017-Sep-11 23:00N 33°45' W 118°17'  
Track history (hours):
 
Tides and Currents Weather Stations Pressure Air Temp Water Temp Dewpoint Dewpoint Depression Visibility Wind Speed Wind Dir Waves Ship Positions

Alta June

Owner: Foss Maritime Company, Seattle, WA. More information available from US FCC via Universal Licensing System and Coast Guard Vessel Documentation Center.

Last reported at 2017-Sep-21 22:57 UTC. Time now 2017-Sep-21 23:11 UTC.
Position N 33°46' W 118°17'.

Length 23 m; draft 5 m.

Type: Towing. MMSI: 367369720.

Date/timePositionNaut miles runAvg speedWind from/ knotsBaromVisibWave heightAir tempDewpointWater temp
2017-Sep-21 22:57N 33°46' W 118°17'0 0.3
2017-Sep-21 22:30N 33°45' W 118°17'1 2.4
2017-Sep-21 22:00N 33°44' W 118°17'1 2.8
2017-Sep-21 21:29N 33°43' W 118°16'0 0.9
2017-Sep-21 20:59N 33°43' W 118°16'0 0.0
2017-Sep-21 20:30N 33°43' W 118°16'0 0.0
2017-Sep-21 19:52N 33°43' W 118°16'0 0.9
2017-Sep-21 19:27N 33°43' W 118°16'2 5.0
2017-Sep-21 18:58N 33°46' W 118°16'0 0.7
2017-Sep-21 18:26N 33°45' W 118°16'2 5.1
2017-Sep-21 18:00N 33°43' W 118°16'1 1.3
2017-Sep-21 17:28N 33°44' W 118°16'2 5.0
2017-Sep-21 17:00N 33°45' W 118°13'1 2.1
2017-Sep-21 16:30N 33°46' W 118°13'0 0.0
2017-Sep-21 16:00N 33°46' W 118°13'2 3.8
2017-Sep-21 15:27N 33°46' W 118°16'0 0.4
2017-Sep-21 14:57N 33°46' W 118°16'0 0.7
2017-Sep-21 14:25N 33°46' W 118°16'2 3.2
2017-Sep-21 13:56N 33°44' W 118°17'1 3.0
2017-Sep-21 13:30N 33°43' W 118°16'2 3.2
2017-Sep-21 12:59N 33°45' W 118°16'0 0.0
2017-Sep-21 12:29N 33°45' W 118°16'2 3.0
2017-Sep-21 11:58N 33°43' W 118°16'2 4.0
2017-Sep-21 11:28N 33°45' W 118°16'0 0.5
2017-Sep-21 10:47N 33°45' W 118°16'0 0.1
2017-Sep-21 10:27N 33°45' W 118°16'0 0.6
2017-Sep-21 10:00N 33°45' W 118°16'1 1.5
2017-Sep-21 09:27N 33°44' W 118°17'3 0.6
2017-Sep-21 04:33N 33°46' W 118°13'0 0.0
2017-Sep-21 04:30N 33°46' W 118°13'0 0.0
2017-Sep-21 04:00N 33°46' W 118°13'0 0.0
2017-Sep-21 03:30N 33°46' W 118°13'0 0.0
2017-Sep-21 02:59N 33°46' W 118°13'0 0.0
2017-Sep-21 02:24N 33°46' W 118°13'0 0.0
2017-Sep-21 01:59N 33°46' W 118°13'0 0.0
2017-Sep-21 01:30N 33°46' W 118°13'3 4.7
2017-Sep-21 00:55N 33°45' W 118°16'1 2.4
2017-Sep-21 00:28N 33°46' W 118°16'0 0.0
2017-Sep-21 00:00N 33°46' W 118°16'0 0.3
2017-Sep-20 23:29N 33°46' W 118°16'0 0.0
2017-Sep-20 23:00N 33°46' W 118°16'0 0.0
2017-Sep-20 22:30N 33°46' W 118°16'0 0.0
2017-Sep-20 21:59N 33°46' W 118°16'0 1.0
2017-Sep-20 21:30N 33°46' W 118°15'2 4.2
2017-Sep-20 20:59N 33°46' W 118°13'0 0.2
2017-Sep-20 20:30N 33°46' W 118°13'0 0.0
2017-Sep-20 20:00N 33°46' W 118°13'0 0.6
2017-Sep-20 19:30N 33°46' W 118°13'2 4.3
2017-Sep-20 19:00N 33°44' W 118°13'0 1.0
2017-Sep-20 18:30N 33°44' W 118°14'2 5.0
2017-Sep-20 18:00N 33°44' W 118°17'2 3.9
2017-Sep-20 17:27N 33°46' W 118°15'1 3.1
2017-Sep-20 17:00N 33°46' W 118°13'0 0.0
2017-Sep-20 16:30N 33°46' W 118°13'0 0.0
2017-Sep-20 15:59N 33°46' W 118°13'0 0.0
2017-Sep-20 15:29N 33°46' W 118°13'0 0.0
2017-Sep-20 14:57N 33°46' W 118°13'0 0.0
2017-Sep-20 14:00N 33°46' W 118°13'0 0.0
2017-Sep-20 13:19N 33°46' W 118°13'0 0.0
2017-Sep-20 13:00N 33°46' W 118°13'1 1.4
2017-Sep-20 12:30N 33°45' W 118°14'0 0.1
2017-Sep-20 12:00N 33°45' W 118°14'1 1.2
2017-Sep-20 11:26N 33°46' W 118°13'0 0.0
2017-Sep-20 10:32N 33°46' W 118°13'0 0.0
2017-Sep-20 10:02N 33°46' W 118°13'0 0.0
2017-Sep-20 09:49N 33°46' W 118°13'1 1.7
2017-Sep-20 09:22N 33°46' W 118°13'0 0.0
2017-Sep-20 08:59N 33°46' W 118°13'0 0.2
2017-Sep-20 08:30N 33°46' W 118°13'1 1.6
2017-Sep-20 07:58N 33°46' W 118°13'3 2.4
2017-Sep-20 06:36N 33°44' W 118°16'2 8.6
2017-Sep-20 06:24N 33°46' W 118°16'0 0.9
2017-Sep-20 05:56N 33°46' W 118°16'1 1.1
2017-Sep-20 05:30N 33°46' W 118°16'1 0.7
2017-Sep-20 04:04N 33°46' W 118°15'1 5.9
2017-Sep-20 03:55N 33°46' W 118°16'1 1.7
2017-Sep-20 03:30N 33°46' W 118°17'0 0.6
2017-Sep-20 03:00N 33°46' W 118°16'1 1.0
2017-Sep-20 02:29N 33°46' W 118°16'0 0.1
2017-Sep-20 01:48N 33°46' W 118°16'0 0.0
2017-Sep-20 01:28N 33°46' W 118°16'0 0.0
2017-Sep-20 00:56N 33°46' W 118°16'0 0.0
2017-Sep-20 00:27N 33°46' W 118°16'0 0.0
2017-Sep-20 00:00N 33°46' W 118°16'0 0.0
2017-Sep-19 23:30N 33°46' W 118°16'0 0.0
2017-Sep-19 23:00N 33°46' W 118°16'1 1.0
2017-Sep-19 22:27N 33°46' W 118°16'0 1.0
2017-Sep-19 22:00N 33°46' W 118°17'2 3.1
2017-Sep-19 21:28N 33°44' W 118°16'2 3.8
2017-Sep-19 20:59N 33°43' W 118°15'1 2.8
2017-Sep-19 20:29N 33°44' W 118°14'2 3.3
2017-Sep-19 19:52N 33°46' W 118°13'0 0.0
2017-Sep-19 19:29N 33°46' W 118°13'0 0.0
2017-Sep-19 18:47N 33°46' W 118°13'0 0.0
2017-Sep-19 18:18N 33°46' W 118°13'0 0.0
2017-Sep-19 17:45N 33°46' W 118°13'0 0.0
2017-Sep-19 17:17N 33°46' W 118°13'0 0.0
2017-Sep-19 16:49N 33°46' W 118°13'1 0.1
2017-Sep-19 03:04N 33°45' W 118°14'0 1.0
2017-Sep-19 02:59N 33°45' W 118°14'0 0.1
2017-Sep-19 02:19N 33°45' W 118°14'1 1.6
2017-Sep-19 01:52N 33°45' W 118°13'0 0.0
2017-Sep-19 00:10N 33°45' W 118°13'0 0.0
2017-Sep-18 23:55N 33°45' W 118°13'0 0.9
2017-Sep-18 23:30N 33°45' W 118°13'3 6.1
2017-Sep-18 23:00N 33°43' W 118°16'2 3.9
2017-Sep-18 22:30N 33°45' W 118°16'0 0.1
2017-Sep-18 22:00N 33°45' W 118°16'1 1.1
2017-Sep-18 21:30N 33°45' W 118°16'0 0.2
2017-Sep-18 20:57N 33°45' W 118°16'0 0.2
2017-Sep-18 20:30N 33°45' W 118°16'2 4.2
2017-Sep-18 19:59N 33°43' W 118°15'0 0.7
2017-Sep-18 19:30N 33°43' W 118°16'3 4.3
2017-Sep-18 18:54N 33°46' W 118°17'0 0.5
2017-Sep-18 18:29N 33°45' W 118°17'1 2.4
2017-Sep-18 18:00N 33°44' W 118°17'2 4.0
2017-Sep-18 17:28N 33°43' W 118°15'3 5.3
2017-Sep-18 16:56N 33°45' W 118°13'0 0.9
2017-Sep-18 16:23N 33°46' W 118°13'2 0.5
2017-Sep-18 12:12N 33°44' W 118°11'1 0.7
2017-Sep-18 11:23N 33°44' W 118°11'2 0.9
2017-Sep-18 08:47N 33°46' W 118°13'0 0.0
2017-Sep-18 08:30N 33°46' W 118°13'0 0.0
2017-Sep-18 07:59N 33°46' W 118°13'0 0.0
2017-Sep-18 07:29N 33°46' W 118°13'1 2.3
2017-Sep-18 07:00N 33°45' W 118°13'1 0.6
2017-Sep-18 05:02N 33°46' W 118°13'0 0.0
2017-Sep-18 04:19N 33°46' W 118°13'0 0.0
2017-Sep-18 04:00N 33°46' W 118°13'0 0.0
2017-Sep-18 03:30N 33°46' W 118°13'0 0.0
2017-Sep-18 02:59N 33°46' W 118°13'0 0.5
2017-Sep-18 02:04N 33°46' W 118°13'1 7.8
2017-Sep-18 01:57N 33°46' W 118°14'1 2.3
2017-Sep-18 01:27N 33°46' W 118°16'0 0.0
2017-Sep-18 00:58N 33°46' W 118°16'0 0.0
2017-Sep-18 00:22N 33°46' W 118°16'0 0.0
2017-Sep-17 23:54N 33°46' W 118°16'0 0.0
2017-Sep-17 23:23N 33°46' W 118°16'0 0.5
2017-Sep-17 22:56N 33°46' W 118°16'0 1.0
2017-Sep-17 22:29N 33°45' W 118°16'2 3.3
2017-Sep-17 21:59N 33°44' W 118°16'2 3.1
2017-Sep-17 21:25N 33°43' W 118°14'1 2.8
2017-Sep-17 21:00N 33°44' W 118°13'2 4.1
2017-Sep-17 20:30N 33°46' W 118°13'0 0.0
2017-Sep-17 19:56N 33°46' W 118°13'0 0.0
2017-Sep-17 19:16N 33°46' W 118°13'0 0.0
2017-Sep-17 18:48N 33°46' W 118°13'0 0.0
2017-Sep-17 18:20N 33°46' W 118°13'0 0.0
2017-Sep-17 17:32N 33°46' W 118°13'0 0.0
2017-Sep-17 17:28N 33°46' W 118°13'3 0.6
2017-Sep-17 12:53N 33°45' W 118°16'3 1.2
2017-Sep-17 10:40N 33°45' W 118°13'1 2.2
2017-Sep-17 10:25N 33°45' W 118°13'0 0.1
2017-Sep-17 08:44N 33°46' W 118°13'0 0.0
2017-Sep-17 08:18N 33°46' W 118°13'0 0.0
2017-Sep-17 07:56N 33°46' W 118°13'0 0.0
2017-Sep-17 06:53N 33°46' W 118°13'0 0.0
2017-Sep-17 06:24N 33°46' W 118°13'0 0.0
2017-Sep-17 05:54N 33°46' W 118°13'0 0.0
2017-Sep-17 05:25N 33°46' W 118°13'0 0.0
2017-Sep-17 04:57N 33°46' W 118°13'0 0.0
2017-Sep-17 04:25N 33°46' W 118°13'0 0.0
2017-Sep-17 03:59N 33°46' W 118°13'0 0.0
2017-Sep-17 03:24N 33°46' W 118°13'0 0.0
2017-Sep-17 02:56N 33°46' W 118°13'0 0.0
2017-Sep-17 02:26N 33°46' W 118°13'0 0.0
2017-Sep-17 01:57N 33°46' W 118°13'0 0.0
2017-Sep-17 01:29N 33°46' W 118°13'0 0.0
2017-Sep-17 00:58N 33°46' W 118°13'2 5.2
2017-Sep-17 00:30N 33°44' W 118°11'0 0.9
2017-Sep-16 23:59N 33°44' W 118°11'0 0.3
2017-Sep-16 23:26N 33°44' W 118°11'2 3.3
2017-Sep-16 22:58N 33°45' W 118°13'2 3.1
2017-Sep-16 22:29N 33°46' W 118°13'2 4.7
2017-Sep-16 21:59N 33°44' W 118°13'0 0.0
2017-Sep-16 21:30N 33°44' W 118°13'0 0.0
2017-Sep-16 20:55N 33°44' W 118°13'0 0.0
2017-Sep-16 20:30N 33°44' W 118°13'0 0.0
2017-Sep-16 20:00N 33°44' W 118°13'0 0.1
2017-Sep-16 19:29N 33°44' W 118°13'0 0.6
2017-Sep-16 19:00N 33°44' W 118°13'3 5.6
2017-Sep-16 18:29N 33°44' W 118°17'1 2.8
2017-Sep-16 17:59N 33°45' W 118°16'0 0.1
2017-Sep-16 17:30N 33°45' W 118°17'2 3.2
2017-Sep-16 16:57N 33°46' W 118°15'1 1.1
2017-Sep-16 15:56N 33°46' W 118°13'3 0.5
2017-Sep-16 10:51N 33°43' W 118°14'3 4.2
2017-Sep-16 10:09N 33°46' W 118°14'0 0.0
2017-Sep-16 09:53N 33°46' W 118°14'1 2.3
2017-Sep-16 09:30N 33°46' W 118°13'0 0.0
2017-Sep-16 09:00N 33°46' W 118°13'0 0.0
2017-Sep-16 07:47N 33°46' W 118°13'0 0.0
2017-Sep-16 07:29N 33°46' W 118°13'0 0.0
2017-Sep-16 06:59N 33°46' W 118°13'0 0.0
2017-Sep-16 06:30N 33°46' W 118°13'0 0.0
2017-Sep-16 06:00N 33°46' W 118°13'0 0.0
2017-Sep-16 05:30N 33°46' W 118°13'0 0.0
2017-Sep-16 04:59N 33°46' W 118°13'0 0.0
2017-Sep-16 04:30N 33°46' W 118°13'0 0.0
2017-Sep-16 03:59N 33°46' W 118°13'0 0.0
2017-Sep-16 03:26N 33°46' W 118°13'0 0.0
2017-Sep-16 02:56N 33°46' W 118°13'0 0.0
2017-Sep-16 02:26N 33°46' W 118°13'0 0.0
2017-Sep-16 01:55N 33°46' W 118°13'1 1.7
2017-Sep-16 01:30N 33°46' W 118°13'1 1.3
2017-Sep-16 01:00N 33°46' W 118°13'3 5.6
2017-Sep-16 00:28N 33°44' W 118°11'0 0.8
2017-Sep-16 00:00N 33°44' W 118°10'0 0.0
2017-Sep-15 23:30N 33°44' W 118°10'2 3.9
2017-Sep-15 22:59N 33°44' W 118°13'1 1.8
2017-Sep-15 22:28N 33°45' W 118°13'0 0.0
2017-Sep-15 21:59N 33°45' W 118°13'2 4.1
2017-Sep-15 21:25N 33°43' W 118°14'2 4.7
2017-Sep-15 21:00N 33°44' W 118°16'0 0.0
2017-Sep-15 20:30N 33°44' W 118°16'0 0.2
2017-Sep-15 20:00N 33°44' W 118°16'3 6.4
2017-Sep-15 19:30N 33°45' W 118°13'1 1.8
2017-Sep-15 18:53N 33°46' W 118°13'1 1.3
2017-Sep-15 18:27N 33°46' W 118°13'0 0.6
2017-Sep-15 17:59N 33°46' W 118°13'0 0.0
2017-Sep-15 17:21N 33°46' W 118°13'0 0.7
2017-Sep-15 16:52N 33°46' W 118°13'2 4.8
2017-Sep-15 16:28N 33°46' W 118°16'2 2.6
2017-Sep-15 15:52N 33°45' W 118°17'3 6.2
2017-Sep-15 15:25N 33°43' W 118°14'3 6.2
2017-Sep-15 14:56N 33°46' W 118°13'0 0.3
2017-Sep-15 14:25N 33°46' W 118°13'0 0.0
2017-Sep-15 13:58N 33°46' W 118°13'1 1.6
2017-Sep-15 13:30N 33°46' W 118°13'3 6.4
2017-Sep-15 13:00N 33°44' W 118°17'1 1.9
2017-Sep-15 12:30N 33°45' W 118°16'0 0.0
2017-Sep-15 12:00N 33°45' W 118°16'0 0.5
2017-Sep-15 11:29N 33°45' W 118°16'0 0.0
2017-Sep-15 10:55N 33°45' W 118°16'0 0.0
2017-Sep-15 10:30N 33°45' W 118°16'0 0.0
2017-Sep-15 09:47N 33°45' W 118°16'0 0.0
2017-Sep-15 09:26N 33°45' W 118°16'0 0.0
2017-Sep-15 09:00N 33°45' W 118°16'0 0.0
2017-Sep-15 08:29N 33°45' W 118°16'0 0.0
2017-Sep-15 08:00N 33°45' W 118°16'0 0.4
2017-Sep-15 07:28N 33°45' W 118°16'1 1.7
2017-Sep-15 06:59N 33°45' W 118°17'3 5.5
2017-Sep-15 06:27N 33°42' W 118°14'2 3.5
2017-Sep-15 05:59N 33°42' W 118°12'2 3.4
2017-Sep-15 05:30N 33°44' W 118°12'2 4.4
2017-Sep-15 04:59N 33°46' W 118°13'0 0.0
2017-Sep-15 03:55N 33°46' W 118°13'1 2.3
2017-Sep-15 03:25N 33°46' W 118°15'1 2.4
2017-Sep-15 03:00N 33°46' W 118°16'1 2.3
2017-Sep-15 02:28N 33°45' W 118°16'3 2.9
2017-Sep-15 01:29N 33°45' W 118°13'1 2.3
2017-Sep-15 01:00N 33°46' W 118°13'0 0.5
2017-Sep-15 00:29N 33°46' W 118°13'1 2.8
2017-Sep-14 23:59N 33°45' W 118°13'2 3.9
2017-Sep-14 23:30N 33°44' W 118°12'1 1.8
2017-Sep-14 22:58N 33°44' W 118°12'0 0.0
2017-Sep-14 22:30N 33°44' W 118°12'0 0.0
2017-Sep-14 22:00N 33°44' W 118°12'0 0.9
2017-Sep-14 21:30N 33°44' W 118°12'1 1.2
2017-Sep-14 20:58N 33°44' W 118°12'3 5.5
2017-Sep-14 20:30N 33°46' W 118°13'0 0.8
2017-Sep-14 19:59N 33°46' W 118°13'3 4.8
2017-Sep-14 19:21N 33°43' W 118°14'2 4.5
2017-Sep-14 18:57N 33°44' W 118°16'2 4.4
2017-Sep-14 18:28N 33°46' W 118°16'1 1.6
2017-Sep-14 18:00N 33°46' W 118°15'1 2.7
2017-Sep-14 17:30N 33°46' W 118°13'0 0.0
2017-Sep-14 17:00N 33°46' W 118°13'0 0.0
2017-Sep-14 16:30N 33°46' W 118°13'0 0.0
2017-Sep-14 16:00N 33°46' W 118°13'0 0.0
2017-Sep-14 15:29N 33°46' W 118°13'1 1.5
2017-Sep-14 15:00N 33°46' W 118°13'4 3.3
2017-Sep-14 13:49N 33°43' W 118°16'0 0.7
2017-Sep-14 13:28N 33°43' W 118°16'3 7.1
2017-Sep-14 12:59N 33°44' W 118°12'0 0.4
2017-Sep-14 12:17N 33°44' W 118°11'1 0.4
2017-Sep-14 10:51N 33°44' W 118°11'1 2.3
2017-Sep-14 10:30N 33°44' W 118°12'1 0.9
2017-Sep-14 09:55N 33°44' W 118°12'2 3.9
2017-Sep-14 09:29N 33°46' W 118°13'0 0.0
2017-Sep-14 08:52N 33°46' W 118°13'0 0.0
2017-Sep-14 08:25N 33°46' W 118°13'0 0.0
2017-Sep-14 07:55N 33°46' W 118°13'0 0.0
2017-Sep-14 07:30N 33°46' W 118°13'0 1.0
2017-Sep-14 07:01N 33°46' W 118°13'2 3.7
2017-Sep-14 06:30N 33°46' W 118°16'0 0.2
2017-Sep-14 06:00N 33°46' W 118°16'0 0.2
2017-Sep-14 05:30N 33°46' W 118°16'2 3.9
2017-Sep-14 04:58N 33°46' W 118°13'0 0.0
2017-Sep-14 04:30N 33°46' W 118°13'0 0.0
2017-Sep-14 04:00N 33°46' W 118°13'0 0.0
2017-Sep-14 03:29N 33°46' W 118°13'0 0.0
2017-Sep-14 02:59N 33°46' W 118°13'0 0.0
2017-Sep-14 02:30N 33°46' W 118°13'0 0.8
2017-Sep-14 02:00N 33°45' W 118°13'3 6.4
2017-Sep-14 01:31N 33°43' W 118°16'1 1.6
2017-Sep-14 00:59N 33°44' W 118°15'0 0.0
2017-Sep-14 00:30N 33°44' W 118°15'1 2.2
2017-Sep-14 00:00N 33°44' W 118°17'2 3.0
2017-Sep-13 23:29N 33°46' W 118°16'0 0.0
2017-Sep-13 22:59N 33°46' W 118°16'0 0.0
2017-Sep-13 22:30N 33°46' W 118°16'0 0.0
2017-Sep-13 22:00N 33°46' W 118°16'0 0.0
2017-Sep-13 21:30N 33°46' W 118°16'0 0.0
2017-Sep-13 20:59N 33°46' W 118°16'0 0.0
2017-Sep-13 20:30N 33°46' W 118°16'0 0.0
2017-Sep-13 20:00N 33°46' W 118°16'0 0.0
2017-Sep-13 19:30N 33°46' W 118°16'0 0.3
2017-Sep-13 19:00N 33°46' W 118°16'0 0.0
2017-Sep-13 18:30N 33°46' W 118°16'2 3.2
2017-Sep-13 17:59N 33°46' W 118°14'1 1.2
2017-Sep-13 17:30N 33°46' W 118°13'0 0.0
2017-Sep-13 17:00N 33°46' W 118°13'0 0.0
2017-Sep-13 16:30N 33°46' W 118°13'0 0.0
2017-Sep-13 15:59N 33°46' W 118°13'0 0.0
2017-Sep-13 15:30N 33°46' W 118°13'1 1.9
2017-Sep-13 14:59N 33°46' W 118°14'2 4.1
2017-Sep-13 14:30N 33°45' W 118°16'0 0.7
2017-Sep-13 14:00N 33°46' W 118°17'1 1.4
2017-Sep-13 13:26N 33°45' W 118°16'2 4.6
2017-Sep-13 13:00N 33°45' W 118°13'0 0.8
2017-Sep-13 12:30N 33°45' W 118°14'2 3.4
2017-Sep-13 11:55N 33°44' W 118°12'2 5.1
2017-Sep-13 11:30N 33°45' W 118°14'0 0.5
2017-Sep-13 11:00N 33°45' W 118°14'1 2.5
2017-Sep-13 10:30N 33°44' W 118°13'1 1.0
2017-Sep-13 09:59N 33°44' W 118°12'1 1.3
2017-Sep-13 09:29N 33°44' W 118°12'0 0.1
2017-Sep-13 09:00N 33°44' W 118°12'0 0.1
2017-Sep-13 08:29N 33°44' W 118°12'1 1.5
2017-Sep-13 08:00N 33°45' W 118°12'1 1.4
2017-Sep-13 07:30N 33°45' W 118°13'0 0.0
2017-Sep-13 07:00N 33°45' W 118°13'0 0.0
2017-Sep-13 05:32N 33°45' W 118°13'0 4.2
2017-Sep-13 05:30N 33°45' W 118°13'0 0.8
2017-Sep-13 04:58N 33°46' W 118°13'1 2.5
2017-Sep-13 04:30N 33°46' W 118°15'1 2.1
2017-Sep-13 04:00N 33°46' W 118°16'3 5.3
2017-Sep-13 03:30N 33°43' W 118°16'1 2.5
2017-Sep-13 03:00N 33°44' W 118°15'0 0.1
2017-Sep-13 02:30N 33°44' W 118°15'2 3.1
2017-Sep-13 02:00N 33°45' W 118°16'1 1.8
2017-Sep-13 01:30N 33°45' W 118°16'0 0.0
2017-Sep-13 01:00N 33°45' W 118°16'0 0.0
2017-Sep-13 00:30N 33°45' W 118°16'0 0.0
2017-Sep-12 23:59N 33°45' W 118°16'2 3.7
2017-Sep-12 23:29N 33°44' W 118°16'1 2.4
2017-Sep-12 23:00N 33°44' W 118°15'1 2.6
2017-Sep-12 22:29N 33°44' W 118°17'2 4.0
2017-Sep-12 22:00N 33°46' W 118°16'2 3.5
2017-Sep-12 21:30N 33°46' W 118°13'1 1.3
2017-Sep-12 21:00N 33°46' W 118°13'0 0.0
2017-Sep-12 20:30N 33°46' W 118°13'0 0.0
2017-Sep-12 20:00N 33°46' W 118°13'0 0.0
2017-Sep-12 19:30N 33°46' W 118°13'0 0.0
2017-Sep-12 18:55N 33°46' W 118°13'0 0.0
2017-Sep-12 18:30N 33°46' W 118°13'0 0.1
2017-Sep-12 18:01N 33°46' W 118°13'0 0.2
2017-Sep-12 17:30N 33°46' W 118°13'0 0.0
2017-Sep-12 17:00N 33°46' W 118°13'0 0.0
2017-Sep-12 16:30N 33°46' W 118°13'0 0.0
2017-Sep-12 16:00N 33°46' W 118°13'0 0.0
2017-Sep-12 15:30N 33°46' W 118°13'1 1.3
2017-Sep-12 15:01N 33°46' W 118°13'0 0.0
2017-Sep-12 14:30N 33°46' W 118°13'2 3.1
2017-Sep-12 14:00N 33°46' W 118°15'1 2.7
2017-Sep-12 13:30N 33°45' W 118°16'1 1.2
2017-Sep-12 13:00N 33°44' W 118°17'1 1.9
2017-Sep-12 12:30N 33°43' W 118°16'1 1.1
2017-Sep-12 12:00N 33°43' W 118°16'1 1.7
2017-Sep-12 11:30N 33°43' W 118°15'2 4.8
2017-Sep-12 10:59N 33°45' W 118°16'1 1.9
2017-Sep-12 10:30N 33°46' W 118°16'0 0.0
2017-Sep-12 10:00N 33°46' W 118°16'0 0.0
2017-Sep-12 09:27N 33°46' W 118°16'0 0.0
2017-Sep-12 09:00N 33°46' W 118°16'0 0.0
2017-Sep-12 08:29N 33°46' W 118°16'0 0.3
2017-Sep-12 08:00N 33°46' W 118°16'0 0.3
2017-Sep-12 07:31N 33°46' W 118°16'0 0.0
2017-Sep-12 06:58N 33°46' W 118°16'0 0.0
2017-Sep-12 06:29N 33°46' W 118°16'0 0.0
2017-Sep-12 06:00N 33°46' W 118°16'2 4.0
2017-Sep-12 05:28N 33°46' W 118°13'0 0.0
2017-Sep-12 04:56N 33°46' W 118°13'0 0.0
2017-Sep-12 04:31N 33°46' W 118°13'0 0.2
2017-Sep-12 04:00N 33°46' W 118°13'2 4.1
2017-Sep-12 03:30N 33°46' W 118°16'3 5.7
2017-Sep-12 03:00N 33°43' W 118°14'3 6.5
2017-Sep-12 02:30N 33°46' W 118°13'0 0.0
2017-Sep-12 02:01N 33°46' W 118°13'2 4.3
2017-Sep-12 01:29N 33°46' W 118°16'3 6.0
2017-Sep-12 01:00N 33°43' W 118°16'3 6.2
2017-Sep-12 00:30N 33°45' W 118°13'2 4.6
2017-Sep-12 00:00N 33°43' W 118°14'3 6.3
2017-Sep-11 23:31N 33°46' W 118°17'0 0.4
2017-Sep-11 23:00N 33°45' W 118°17'  

Dump ship's entire track history